BLX weather

Belluno Airport
Belluno (BL), Veneto, Italy

Public forecast

Using degrees Celsius for public forecast. Weather courtesy of forecast.io.

Closest aviation weather report (METAR) to Belluno Airport

Closest report is Aviano Air Base, 16.5 nm (30.6 km) ESE. Retrieved 2020/04/08 17:55 UTC (1 hour ago):

LIPA 081755Z 30003KT CAVOK 19/M01 Q1023 RMK SKC VIS MIN 9999 WIND THR05 /////KT WIND THR23 /////KT A3023 BLU

Closest aviation forecast (TAF) to Belluno Airport

Forecast is more than 12 hours old.

Closest forecast is Aviano Air Base, 16.5 nm (30.6 km) ESE. Retrieved 2015/11/03 12:24 UTC (4 years ago):

TAF TAF LIPA 031100Z 0312/0324 VRB03KT CAVOK